Portada
METAR-TAF:

METAR-TAF

Aeroports :

Mataram, Indonèsia

latitud: 08-45-29S, longitud: 116-16-35E, altitud: 97 m

Observació

L'informe es va fer fa 27 minuts, a les 23:30 UTC
Vent calma
Temperatura 27°C
Humitat 89%
Pressió 1013 hPa
Visibilitat: 7000 m
Núvols disperses a una alçada de 1600 ft

METAR: WADL 202330Z 00000KT 7000 SCT016 27/25 Q1013 NOSIG

Hora: 06:57 (23:57 UTC)

Pronòstic

L'informe es va fer fa 57 minuts, a les 23:00 UTC
Pronòstic vàlid del 21 a les 00 UTC al 21 a les 24 UTC
Vent 15 kt del Sud
Visibilitat: 8000 m
Núvols disperses a una alçada de 1600 ft
Evolucionant progressivament
l' 21 a les 11 UTC al 21 a les 13 UTC
Vent 5 kt del Nord/Nord-Oest

TAF: WADL 202300Z 2100/2124 19015KT 8000 SCT016 BECMG 2111/2113 34005KT

Observacions i pronòstics meteorològics de més de 4000 aeroports (METAR i TAF).

Les estacions disponibles són els punts grocs i vermells al mapa.

Posi el ratolí al punt desitjat per veure el nom de l'estació.

Feu clic per veure les observacions i els pronòstics meteorològics.

Per canviar el mapa: feu clic els botons verds amb una creu de color negre per apropar; al botó verd amb un guió per allunyar la imatge; o en les fletxes verdes per a mapes adjacents.


METAR-TAF: